Time;durP1;ratioP1;P1;durP2;ratioP2;P2;SDS_P1;SDS_P2;PMS_P1;PMS_P2;Temp;Humidity;BMP_temperature;BMP_pressure;BME280_temperature;BME280_humidity;BME280_pressure;Samples;Min_cycle;Max_cycle;Signal;HPM_P1;HPM_P2
2022/06/30 00:00:08;;;;;;;9.73;8.35;;;;;;;20.36;66.69;100868.09;4966831;28;20030;-82
2022/06/30 00:02:34;;;;;;;11.18;8.23;;;;;;;20.39;67.19;100873.19;4963028;28;20089;-82
2022/06/30 00:04:59;;;;;;;9.20;8.25;;;;;;;20.36;67.25;100866.25;4962707;28;20062;-83
2022/06/30 00:07:24;;;;;;;10.50;8.27;;;;;;;20.34;67.50;100868.22;4955693;28;20042;-83
2022/06/30 00:09:49;;;;;;;9.80;8.80;;;;;;;20.30;67.18;100868.66;4963255;28;20115;-82
2022/06/30 00:12:15;;;;;;;9.07;8.18;;;;;;;20.26;68.06;100862.66;4961522;28;20034;-83
2022/06/30 00:14:40;;;;;;;9.88;8.82;;;;;;;20.20;67.79;100857.81;4965509;28;20019;-82
2022/06/30 00:17:06;;;;;;;9.30;8.40;;;;;;;20.14;68.33;100861.06;4966008;28;20039;-83
2022/06/30 00:19:32;;;;;;;10.30;8.15;;;;;;;20.10;68.90;100859.63;4958473;28;20058;-82
2022/06/30 00:21:58;;;;;;;9.05;8.05;;;;;;;20.09;68.66;100852.53;4973212;28;20066;-82
2022/06/30 00:24:23;;;;;;;9.43;8.40;;;;;;;20.01;68.08;100845.13;4980567;28;20022;-83
2022/06/30 00:26:48;;;;;;;10.00;8.80;;;;;;;20.01;67.71;100855.06;4974126;28;20410;-83
2022/06/30 00:29:13;;;;;;;10.43;9.10;;;;;;;19.93;67.23;100847.66;4972832;28;20442;-82
2022/06/30 00:31:39;;;;;;;10.73;9.38;;;;;;;19.93;66.83;100844.97;4967645;28;20031;-82
2022/06/30 00:34:04;;;;;;;12.57;10.90;;;;;;;19.87;66.29;100842.81;4967052;28;20028;-82
2022/06/30 00:36:29;;;;;;;13.02;10.98;;;;;;;19.87;66.92;100851.78;4966459;28;20570;-82
2022/06/30 00:38:55;;;;;;;14.68;11.70;;;;;;;19.89;65.90;100847.06;4967610;28;20035;-83
2022/06/30 00:41:20;;;;;;;14.98;12.43;;;;;;;19.84;66.55;100841.25;4967819;28;20489;-83
2022/06/30 00:43:46;;;;;;;13.00;11.43;;;;;;;19.81;66.92;100841.50;4961398;28;20049;-84
2022/06/30 00:46:12;;;;;;;12.02;10.60;;;;;;;19.78;67.36;100841.81;4952665;28;20027;-84
2022/06/30 00:48:37;;;;;;;13.35;11.25;;;;;;;19.81;66.62;100846.06;4965075;28;20539;-84
2022/06/30 00:51:05;;;;;;;14.23;12.60;;;;;;;19.75;67.44;100833.13;4961934;28;20042;-83
2022/06/30 00:53:40;;;;;;;14.73;12.07;;;;;;;19.71;66.88;100839.78;4956824;28;20027;-84
2022/06/30 00:56:07;;;;;;;14.77;13.27;;;;;;;19.64;67.07;100834.91;4964897;28;20030;-84
2022/06/30 00:58:40;;;;;;;14.15;12.75;;;;;;;19.64;67.23;100844.88;4963493;28;20073;-84
2022/06/30 01:01:08;;;;;;;17.38;13.05;;;;;;;19.59;67.50;100847.09;4969667;28;20046;-83
2022/06/30 01:03:35;;;;;;;11.77;10.68;;;;;;;19.48;68.66;100834.56;4985687;28;20026;-84
2022/06/30 01:06:05;;;;;;;13.38;10.65;;;;;;;19.45;69.66;100845.63;4982465;28;20029;-83
2022/06/30 01:08:31;;;;;;;12.13;10.55;;;;;;;19.36;70.47;100833.78;4960725;28;20027;-83
2022/06/30 01:13:42;;;;;;;10.10;9.10;;;;;;;19.19;71.56;100837.13;4969005;28;20078;-83
2022/06/30 01:16:07;;;;;;;10.85;9.48;;;;;;;19.17;71.67;100847.19;4979779;28;20026;-83
2022/06/30 01:18:36;;;;;;;14.18;9.85;;;;;;;19.14;71.35;100848.31;4973582;28;20138;-84
2022/06/30 01:21:02;;;;;;;11.50;9.50;;;;;;;19.11;71.53;100842.31;4974589;28;20106;-83
2022/06/30 01:23:27;;;;;;;13.82;9.90;;;;;;;19.12;71.45;100849.44;4958726;28;20100;-83
2022/06/30 01:25:53;;;;;;;9.88;8.98;;;;;;;19.09;71.96;100845.13;4970825;28;20129;-83
2022/06/30 01:28:19;;;;;;;9.20;8.25;;;;;;;19.03;72.34;100844.84;4973280;28;20102;-83
2022/06/30 01:30:44;;;;;;;10.23;9.23;;;;;;;19.01;72.20;100850.34;4979053;28;20034;-82
2022/06/30 01:33:10;;;;;;;10.63;9.05;;;;;;;18.96;72.23;100847.19;4983091;28;20038;-82
2022/06/30 01:35:35;;;;;;;10.50;9.40;;;;;;;18.89;72.63;100849.56;4966940;28;20033;-82
2022/06/30 01:38:01;;;;;;;10.25;9.18;;;;;;;18.90;72.25;100850.44;4964890;28;20093;-82
2022/06/30 01:40:29;;;;;;;11.30;9.93;;;;;;;18.82;73.01;100855.63;4967477;28;20061;-82
2022/06/30 01:42:54;;;;;;;12.15;10.30;;;;;;;18.81;72.57;100860.16;4960187;28;20254;-82
2022/06/30 01:45:21;;;;;;;11.05;9.98;;;;;;;18.71;72.75;100859.22;4973893;28;20532;-82
2022/06/30 01:47:47;;;;;;;12.85;10.75;;;;;;;18.64;73.53;100868.78;4966377;28;20117;-82
2022/06/30 01:50:16;;;;;;;12.77;11.05;;;;;;;18.56;74.15;100863.16;4960509;28;20552;-82
2022/06/30 01:52:42;;;;;;;17.27;10.95;;;;;;;18.52;73.99;100862.59;4971232;28;20041;-82
2022/06/30 01:55:08;;;;;;;15.75;11.82;;;;;;;18.47;73.61;100854.00;4967117;28;20030;-82
2022/06/30 01:57:35;;;;;;;13.75;12.35;;;;;;;18.48;73.50;100844.13;4974059;28;20477;-82
2022/06/30 02:00:00;;;;;;;14.73;13.23;;;;;;;18.45;74.04;100861.38;4972547;28;20146;-82
2022/06/30 02:02:26;;;;;;;15.98;13.65;;;;;;;18.43;73.79;100863.34;4970221;28;20118;-82
2022/06/30 02:04:53;;;;;;;15.05;13.35;;;;;;;18.38;73.53;100847.56;4956531;28;20507;-83
2022/06/30 02:07:18;;;;;;;13.95;12.60;;;;;;;18.36;74.23;100854.94;4982278;28;20108;-82
2022/06/30 02:09:45;;;;;;;14.98;13.18;;;;;;;18.37;73.93;100859.31;4984598;28;20073;-82
2022/06/30 02:14:56;;;;;;;14.85;13.35;;;;;;;18.38;73.71;100868.25;4971141;28;20045;-82
2022/06/30 02:17:21;;;;;;;15.68;13.48;;;;;;;18.33;73.50;100876.72;4971183;28;20034;-82
2022/06/30 02:19:47;;;;;;;15.30;13.75;;;;;;;18.26;73.83;100872.81;4978561;28;20026;-83
2022/06/30 02:22:12;;;;;;;16.65;13.98;;;;;;;18.26;73.90;100874.66;4962244;28;20031;-82
2022/06/30 02:24:37;;;;;;;15.93;14.32;;;;;;;18.24;73.87;100868.56;4977388;28;20038;-83
2022/06/30 02:27:03;;;;;;;15.50;13.32;;;;;;;18.21;74.51;100863.41;4972429;28;20065;-83
2022/06/30 02:29:29;;;;;;;16.35;13.88;;;;;;;18.18;74.23;100869.91;4966793;28;20045;-82
2022/06/30 02:31:54;;;;;;;14.73;13.23;;;;;;;18.13;74.76;100878.38;4966092;28;20050;-82
2022/06/30 02:34:19;;;;;;;15.23;13.68;;;;;;;18.09;74.39;100867.97;4967147;28;20034;-82
2022/06/30 02:36:45;;;;;;;16.55;14.93;;;;;;;18.06;74.65;100868.25;4969209;28;20031;-82
2022/06/30 02:39:10;;;;;;;16.80;14.98;;;;;;;18.01;74.84;100868.59;4977120;28;20046;-83
2022/06/30 02:41:35;;;;;;;15.05;13.43;;;;;;;17.98;75.15;100885.03;4968744;28;20027;-82
2022/06/30 02:44:02;;;;;;;15.27;13.35;;;;;;;17.90;75.93;100874.88;4967120;28;20499;-82
2022/06/30 02:46:28;;;;;;;16.60;13.70;;;;;;;17.86;76.10;100876.09;4968053;28;20061;-82
2022/06/30 02:48:53;;;;;;;16.17;13.55;;;;;;;17.84;76.59;100879.88;4963147;28;20043;-82
2022/06/30 02:51:18;;;;;;;15.32;13.73;;;;;;;17.78;76.05;100867.78;4960813;28;20036;-82
2022/06/30 02:53:44;;;;;;;17.75;13.15;;;;;;;17.76;76.40;100874.25;4956854;28;20086;-82
2022/06/30 02:56:11;;;;;;;14.77;13.27;;;;;;;17.72;76.59;100879.00;4973241;28;20046;-82
2022/06/30 02:58:37;;;;;;;15.52;13.18;;;;;;;17.68;76.83;100867.66;4970506;28;20092;-83
2022/06/30 03:01:03;;;;;;;14.98;13.35;;;;;;;17.68;76.65;100869.47;4971480;28;20079;-82
2022/06/30 03:03:28;;;;;;;15.93;14.30;;;;;;;17.62;77.19;100868.13;4969641;28;20031;-82
2022/06/30 03:05:53;;;;;;;15.18;13.65;;;;;;;17.62;77.28;100862.75;4962053;28;20102;-82
2022/06/30 03:08:19;;;;;;;15.65;14.05;;;;;;;17.64;77.77;100859.91;4972196;28;20041;-82
2022/06/30 03:10:44;;;;;;;15.68;14.07;;;;;;;17.56;77.52;100851.63;4971990;28;20038;-82
2022/06/30 03:13:10;;;;;;;16.52;14.85;;;;;;;17.54;77.30;100858.94;4973959;28;20058;-82
2022/06/30 03:15:36;;;;;;;20.33;16.73;;;;;;;17.53;77.41;100863.47;4962716;28;20512;-83
2022/06/30 03:18:01;;;;;;;18.77;15.95;;;;;;;17.52;77.80;100860.94;4961885;28;20023;-82
2022/06/30 03:20:27;;;;;;;18.67;15.75;;;;;;;17.52;77.67;100860.94;4967183;28;20023;-82
2022/06/30 03:22:52;;;;;;;17.27;15.27;;;;;;;17.40;77.75;100846.59;4958227;28;20027;-83
2022/06/30 03:25:17;;;;;;;17.40;14.93;;;;;;;17.45;77.78;100855.16;4960563;28;20266;-82
2022/06/30 03:27:42;;;;;;;17.15;15.35;;;;;;;17.43;78.25;100854.41;4964097;28;20039;-82
2022/06/30 03:30:08;;;;;;;17.48;15.57;;;;;;;17.33;78.37;100848.91;4967632;28;20077;-82
2022/06/30 03:32:34;;;;;;;17.92;15.48;;;;;;;17.38;78.04;100857.47;4978362;28;20485;-82
2022/06/30 03:34:59;;;;;;;16.30;14.60;;;;;;;17.34;79.06;100853.31;4965371;28;20031;-82
2022/06/30 03:37:24;;;;;;;16.90;15.07;;;;;;;17.32;78.83;100852.59;4963147;28;20031;-82
2022/06/30 03:39:50;;;;;;;16.05;14.38;;;;;;;17.29;78.36;100849.28;4970814;28;20043;-82
2022/06/30 03:42:15;;;;;;;15.93;14.20;;;;;;;17.26;78.23;100841.44;4971450;28;20027;-84
2022/06/30 03:44:40;;;;;;;17.45;14.00;;;;;;;17.30;78.61;100854.53;4962722;28;20114;-82
2022/06/30 03:47:06;;;;;;;15.10;13.52;;;;;;;17.27;78.89;100852.09;4963311;28;20041;-82
2022/06/30 03:49:31;;;;;;;15.77;14.27;;;;;;;17.25;78.91;100850.50;4961206;28;20480;-82
2022/06/30 03:51:57;;;;;;;16.08;14.48;;;;;;;17.22;79.00;100842.66;4970100;28;20512;-82
2022/06/30 03:54:22;;;;;;;16.83;15.05;;;;;;;17.23;79.19;100847.94;4969835;28;20031;-81
2022/06/30 03:56:48;;;;;;;15.50;13.90;;;;;;;17.21;78.91;100841.81;4962717;28;20023;-82
2022/06/30 03:59:14;;;;;;;17.63;14.00;;;;;;;17.25;78.89;100845.97;4966802;28;20154;-82
2022/06/30 04:01:39;;;;;;;17.42;14.80;;;;;;;17.23;79.87;100841.72;4965979;28;20047;-82
2022/06/30 04:04:05;;;;;;;16.80;14.93;;;;;;;17.22;79.58;100832.75;4969360;28;20046;-83
2022/06/30 04:06:30;;;;;;;17.02;14.38;;;;;;;17.23;79.37;100839.03;4961606;28;20038;-82
2022/06/30 04:08:55;;;;;;;15.57;14.07;;;;;;;17.24;79.58;100844.25;4976734;28;20388;-83
2022/06/30 04:11:21;;;;;;;16.95;15.15;;;;;;;17.26;79.62;100841.44;4965809;28;20473;-83
2022/06/30 04:13:46;;;;;;;17.48;14.57;;;;;;;17.26;79.60;100842.28;4976549;28;20023;-83
2022/06/30 04:16:11;;;;;;;18.20;14.65;;;;;;;17.28;79.55;100836.81;4967758;28;20231;-83
2022/06/30 04:18:37;;;;;;;17.42;14.73;;;;;;;17.29;79.85;100839.38;4967530;28;20030;-83
2022/06/30 04:21:02;;;;;;;15.88;14.23;;;;;;;17.31;79.75;100842.81;4960683;28;20074;-83
2022/06/30 04:23:27;;;;;;;17.00;15.30;;;;;;;17.31;79.87;100836.59;4972636;28;20502;-83
2022/06/30 04:25:52;;;;;;;17.02;15.23;;;;;;;17.37;79.74;100842.31;4968247;28;20029;-83
2022/06/30 04:28:18;;;;;;;17.25;15.10;;;;;;;17.37;79.29;100847.69;4971570;28;20041;-83
2022/06/30 04:33:27;;;;;;;;;;;;;;;17.50;76.88;100861.03;4974782;28;20396;-83
2022/06/30 04:35:52;;;;;;;16.33;14.63;;;;;;;17.44;78.28;100864.22;4977184;28;19910;-82
2022/06/30 04:38:18;;;;;;;15.48;13.90;;;;;;;17.48;78.48;100864.84;4962615;28;20035;-82
2022/06/30 04:43:27;;;;;;;12.75;11.45;;;;;;;17.45;77.72;100881.22;4972306;28;20053;-83
2022/06/30 04:45:52;;;;;;;13.48;12.00;;;;;;;17.46;77.92;100874.84;4969891;28;20042;-82
2022/06/30 04:48:18;;;;;;;13.02;11.82;;;;;;;17.45;78.32;100870.44;4975461;28;20473;-83
2022/06/30 04:50:43;;;;;;;13.90;12.40;;;;;;;17.38;78.36;100876.31;4996019;28;20058;-83
2022/06/30 04:53:09;;;;;;;14.98;12.10;;;;;;;17.51;79.01;100886.09;4979530;28;20062;-83
2022/06/30 04:55:34;;;;;;;15.13;13.02;;;;;;;17.46;79.36;100880.22;4965643;28;20035;-83
2022/06/30 04:58:00;;;;;;;13.70;12.23;;;;;;;17.52;79.63;100896.75;4976501;28;20026;-84
2022/06/30 05:00:25;;;;;;;14.48;13.00;;;;;;;17.53;79.31;100879.63;4977428;28;20542;-83
2022/06/30 05:02:50;;;;;;;18.60;13.55;;;;;;;17.58;79.38;100898.09;4967224;28;20039;-83
2022/06/30 05:05:16;;;;;;;16.23;14.52;;;;;;;17.63;79.72;100890.50;4965100;28;20031;-84
2022/06/30 05:07:41;;;;;;;17.98;16.10;;;;;;;17.67;79.80;100892.81;4976284;28;20076;-83
2022/06/30 05:10:07;;;;;;;18.95;17.05;;;;;;;17.66;80.20;100901.88;4971268;28;20049;-84
2022/06/30 05:12:32;;;;;;;19.85;17.75;;;;;;;17.64;79.95;100892.22;4967358;28;20038;-84
2022/06/30 05:14:59;;;;;;;19.50;16.92;;;;;;;17.67;79.92;100892.81;4964610;28;20035;-82
2022/06/30 05:17:24;;;;;;;20.52;17.48;;;;;;;17.71;80.13;100893.44;4965321;28;20039;-83
2022/06/30 05:19:50;;;;;;;22.15;18.30;;;;;;;17.77;80.09;100897.53;4975330;28;20376;-82
2022/06/30 05:22:15;;;;;;;22.98;19.33;;;;;;;17.81;80.02;100888.22;4971076;28;20022;-83
2022/06/30 05:27:24;;;;;;;20.08;18.02;;;;;;;17.94;79.57;100899.72;4966491;28;20511;-82
2022/06/30 05:29:50;;;;;;;22.25;19.80;;;;;;;17.94;79.54;100890.78;4967479;28;20028;-83
2022/06/30 05:32:15;;;;;;;25.00;20.88;;;;;;;18.02;78.87;100885.63;4966869;28;20026;-83
2022/06/30 05:34:40;;;;;;;25.00;20.48;;;;;;;18.14;78.87;100895.38;4961630;28;20046;-83
2022/06/30 05:37:06;;;;;;;25.10;22.05;;;;;;;18.18;78.34;100888.75;4965952;28;20031;-84
2022/06/30 05:39:32;;;;;;;25.33;21.05;;;;;;;18.19;78.53;100879.72;4958680;28;20285;-83
2022/06/30 05:42:01;;;;;;;24.27;21.13;;;;;;;18.26;78.46;100885.44;4959115;28;20026;-84
2022/06/30 05:44:28;;;;;;;25.25;21.88;;;;;;;18.29;77.96;100887.91;4958138;28;20023;-83
2022/06/30 05:46:54;;;;;;;24.52;21.45;;;;;;;18.35;77.69;100887.38;4961798;28;20453;-83
2022/06/30 05:49:20;;;;;;;25.52;22.55;;;;;;;18.41;77.21;100886.88;4969556;28;20034;-84
2022/06/30 05:51:45;;;;;;;26.35;23.02;;;;;;;18.51;76.80;100895.91;4971996;28;20511;-83
2022/06/30 05:54:11;;;;;;;26.83;23.35;;;;;;;18.55;76.70;100893.81;4959709;28;20027;-83
2022/06/30 05:56:36;;;;;;;28.98;24.55;;;;;;;18.62;76.39;100889.63;4963686;28;20161;-83
2022/06/30 05:59:02;;;;;;;24.85;22.08;;;;;;;18.72;75.27;100900.50;4967075;28;20042;-82
2022/06/30 06:01:27;;;;;;;23.10;20.65;;;;;;;18.76;75.26;100889.34;4961723;28;20473;-84
2022/06/30 06:03:53;;;;;;;25.48;19.75;;;;;;;18.77;74.86;100890.19;4967873;28;20059;-84
2022/06/30 06:06:19;;;;;;;25.30;18.33;;;;;;;18.86;74.23;100890.28;4963036;28;20081;-82
2022/06/30 06:08:44;;;;;;;20.17;17.48;;;;;;;18.92;73.67;100897.84;4966663;28;20054;-83
2022/06/30 06:11:09;;;;;;;16.48;14.77;;;;;;;19.04;72.77;100895.09;4954711;28;20461;-83
2022/06/30 06:13:35;;;;;;;16.90;14.23;;;;;;;19.19;71.94;100898.28;4953672;28;20588;-84
2022/06/30 06:16:00;;;;;;;18.85;13.85;;;;;;;19.24;71.17;100907.72;4967499;28;20030;-84
2022/06/30 06:18:25;;;;;;;16.27;13.18;;;;;;;19.37;70.33;100908.38;4968697;28;20121;-84
2022/06/30 06:20:51;;;;;;;14.52;12.70;;;;;;;19.43;70.09;100909.66;4954814;28;20426;-85
2022/06/30 06:23:16;;;;;;;14.65;12.15;;;;;;;19.61;69.60;100912.66;4962953;28;20035;-84
2022/06/30 06:25:41;;;;;;;14.00;11.80;;;;;;;19.72;69.42;100914.41;4970237;28;20046;-84
2022/06/30 06:30:50;;;;;;;13.88;11.43;;;;;;;19.91;67.91;100933.41;4961734;28;20060;-82
2022/06/30 06:33:16;;;;;;;13.95;11.13;;;;;;;19.84;68.42;100916.88;4965199;28;20864;-83
2022/06/30 06:35:41;;;;;;;13.77;11.45;;;;;;;19.96;68.60;100932.97;4965143;28;20117;-84
2022/06/30 06:38:06;;;;;;;15.43;11.95;;;;;;;19.94;68.28;100927.72;4980304;28;20030;-83
2022/06/30 06:40:31;;;;;;;15.15;12.77;;;;;;;20.05;69.46;100921.34;4983509;28;20037;-81
2022/06/30 06:42:57;;;;;;;18.83;12.63;;;;;;;20.25;68.64;100928.53;4970491;28;20031;-82
2022/06/30 06:45:22;;;;;;;16.85;11.90;;;;;;;20.48;67.65;100926.44;4969410;28;20023;-82
2022/06/30 06:47:48;;;;;;;15.38;12.25;;;;;;;20.55;67.11;100916.78;4966191;28;20085;-83
2022/06/30 06:50:14;;;;;;;17.08;12.32;;;;;;;20.64;66.74;100925.91;4967249;28;20031;-83
2022/06/30 06:52:39;;;;;;;14.52;11.20;;;;;;;20.68;66.36;100926.50;4983797;28;20062;-82
2022/06/30 06:55:05;;;;;;;13.93;12.15;;;;;;;20.72;65.85;100919.81;4968253;28;20031;-83
2022/06/30 06:57:35;;;;;;;17.83;12.82;;;;;;;20.87;65.69;100927.34;4975251;28;20476;-83
2022/06/30 07:00:02;;;;;;;15.85;11.43;;;;;;;21.06;65.40;100931.88;4975402;28;20362;-83
2022/06/30 07:02:27;;;;;;;15.15;10.75;;;;;;;21.31;65.38;100925.00;4966329;28;20050;-82
2022/06/30 07:04:52;;;;;;;14.70;10.90;;;;;;;21.46;64.70;100935.44;4980459;28;20337;-83
2022/06/30 07:07:18;;;;;;;15.57;11.43;;;;;;;21.52;64.32;100941.09;4963407;28;20126;-83
2022/06/30 07:09:43;;;;;;;15.32;10.88;;;;;;;21.56;64.31;100950.63;4966325;28;20065;-83
2022/06/30 07:12:09;;;;;;;15.07;10.63;;;;;;;21.69;64.92;100958.44;4959577;28;20039;-83
2022/06/30 07:14:34;;;;;;;15.77;10.75;;;;;;;21.83;63.70;100962.56;4969839;28;20288;-83
2022/06/30 07:16:59;;;;;;;15.40;10.32;;;;;;;21.89;63.15;100961.94;4976550;28;20057;-83
2022/06/30 07:19:25;;;;;;;15.48;10.77;;;;;;;21.96;61.83;100962.22;4975353;28;20027;-82
2022/06/30 07:21:50;;;;;;;14.13;10.02;;;;;;;22.04;62.15;100970.47;4978970;28;20507;-83
2022/06/30 07:24:15;;;;;;;19.05;10.70;;;;;;;22.10;62.18;100967.13;4970366;28;20459;-84
2022/06/30 07:26:40;;;;;;;17.75;10.90;;;;;;;22.04;61.72;100979.44;4971719;28;20030;-84
2022/06/30 07:29:06;;;;;;;16.58;11.68;;;;;;;22.11;61.71;100977.84;4990602;28;20019;-83
2022/06/30 07:31:31;;;;;;;15.13;9.32;;;;;;;22.21;60.69;100977.81;4975625;28;20141;-82
2022/06/30 07:33:57;;;;;;;13.65;8.48;;;;;;;22.25;59.98;100972.97;4964912;28;20090;-82
2022/06/30 07:36:22;;;;;;;12.02;8.98;;;;;;;22.51;60.35;100965.81;4969374;28;20023;-82
2022/06/30 07:38:49;;;;;;;13.38;8.32;;;;;;;23.02;58.61;100960.75;4990040;28;20026;-83
2022/06/30 07:41:14;;;;;;;11.98;7.93;;;;;;;23.55;57.55;100962.53;4982629;28;20022;-82
2022/06/30 07:43:40;;;;;;;12.52;7.90;;;;;;;24.07;55.63;100968.78;4961463;28;20040;-83
2022/06/30 07:46:07;;;;;;;13.50;7.28;;;;;;;24.52;53.95;100961.34;4969452;28;20031;-83
2022/06/30 07:48:32;;;;;;;12.68;7.72;;;;;;;24.82;52.21;100974.34;4959923;28;20024;-82
2022/06/30 07:50:57;;;;;;;11.90;7.15;;;;;;;25.14;51.83;100963.69;4970563;28;20045;-82
2022/06/30 07:53:23;;;;;;;15.10;8.20;;;;;;;25.56;50.11;100969.78;4990185;28;20015;-81
2022/06/30 07:55:48;;;;;;;13.13;7.25;;;;;;;25.83;47.91;100974.06;4962269;28;20105;-83
2022/06/30 07:58:13;;;;;;;9.38;6.53;;;;;;;25.98;48.93;100990.53;4972467;28;20080;-82
2022/06/30 08:00:38;;;;;;;10.80;6.57;;;;;;;26.10;47.99;100971.91;4966263;28;20030;-83
2022/06/30 08:03:04;;;;;;;11.43;6.93;;;;;;;26.33;46.76;100977.44;4982134;28;20547;-83
2022/06/30 08:05:29;;;;;;;10.77;6.80;;;;;;;26.79;46.45;100977.53;4978821;28;20512;-83
2022/06/30 08:07:54;;;;;;;10.55;6.57;;;;;;;27.22;45.48;100976.09;4970450;28;20365;-83
2022/06/30 08:10:20;;;;;;;10.15;6.20;;;;;;;27.54;44.87;100972.19;4959271;28;20035;-81
2022/06/30 08:12:45;;;;;;;10.88;6.70;;;;;;;27.95;43.96;100969.06;4969680;28;20852;-83
2022/06/30 08:15:11;;;;;;;13.23;9.02;;;;;;;28.35;42.16;100971.50;4984488;28;20026;-81
2022/06/30 08:17:36;;;;;;;10.07;7.40;;;;;;;28.47;42.18;100970.84;4973969;28;20174;-83
2022/06/30 08:20:02;;;;;;;11.63;6.88;;;;;;;28.95;41.37;100967.56;4974483;28;20583;-83
2022/06/30 08:22:28;;;;;;;8.07;5.72;;;;;;;29.45;40.27;100971.22;4957055;28;20389;-81
2022/06/30 08:24:55;;;;;;;10.50;5.68;;;;;;;29.60;39.68;100973.91;4978491;28;20177;-82
2022/06/30 08:27:20;;;;;;;7.97;6.03;;;;;;;29.77;38.15;100987.09;4982086;28;20104;-82
2022/06/30 08:29:45;;;;;;;9.98;6.03;;;;;;;30.22;37.23;100984.00;5001165;28;20014;-83
2022/06/30 08:32:11;;;;;;;10.20;5.38;;;;;;;30.50;36.73;100986.66;5009690;28;20045;-82
2022/06/30 08:34:36;;;;;;;9.15;5.38;;;;;;;30.44;36.67;100982.00;4981081;28;20291;-82
2022/06/30 08:37:02;;;;;;;11.20;5.25;;;;;;;30.57;36.99;100981.22;4987732;28;20027;-81
2022/06/30 08:42:12;;;;;;;6.50;4.65;;;;;;;31.27;36.55;100990.91;4996236;28;20107;-82
2022/06/30 08:44:42;;;;;;;9.70;4.93;;;;;;;31.88;36.24;100984.34;4986586;28;20069;-82
2022/06/30 08:47:08;;;;;;;5.38;4.20;;;;;;;32.38;33.95;100979.97;4965709;28;20031;-82
2022/06/30 08:49:34;;;;;;;8.45;4.72;;;;;;;32.48;33.53;100976.75;4966530;28;20027;-82
2022/06/30 08:52:00;;;;;;;7.55;5.40;;;;;;;32.18;33.09;100982.78;4977835;28;20034;-82
2022/06/30 08:54:27;;;;;;;7.53;5.10;;;;;;;32.21;34.72;100973.25;4985194;28;20057;-83
2022/06/30 08:56:54;;;;;;;8.02;5.15;;;;;;;32.37;32.76;100981.03;4967176;28;20039;-81
2022/06/30 08:59:21;;;;;;;8.30;4.97;;;;;;;32.45;33.19;100985.47;4959682;28;20057;-81
2022/06/30 09:01:47;;;;;;;9.48;4.60;;;;;;;32.86;32.98;100995.25;4968585;28;20043;-79
2022/06/30 09:04:13;;;;;;;7.45;4.93;;;;;;;33.01;31.93;100992.19;4951752;28;20027;-80
2022/06/30 09:06:42;;;;;;;7.80;4.43;;;;;;;33.22;31.42;100986.31;4972838;28;20039;-79
2022/06/30 09:09:08;;;;;;;7.05;4.07;;;;;;;33.36;31.77;100992.56;4967487;28;20088;-80
2022/06/30 09:11:51;;;;;;;6.68;4.07;;;;;;;33.80;31.87;100990.72;4966458;28;20442;-80
2022/06/30 09:14:42;;;;;;;6.07;3.60;;;;;;;34.02;32.07;100986.47;4972713;28;20114;-80
2022/06/30 09:17:25;;;;;;;7.00;4.03;;;;;;;34.43;31.40;100988.53;4972017;28;20543;-80
2022/06/30 09:19:57;;;;;;;5.63;4.07;;;;;;;35.02;29.24;100986.06;4969221;28;20033;-80
2022/06/30 09:22:25;;;;;;;7.68;4.13;;;;;;;35.19;28.34;100989.81;4989098;28;20027;-80
2022/06/30 09:24:55;;;;;;;6.97;4.22;;;;;;;35.10;29.31;100988.47;4981444;28;20027;-81
2022/06/30 09:27:21;;;;;;;7.40;4.07;;;;;;;34.83;29.06;100988.03;4967554;28;20388;-81
2022/06/30 09:29:58;;;;;;;11.82;4.90;;;;;;;34.81;29.42;100990.16;4973695;28;20031;-81
2022/06/30 09:32:24;;;;;;;6.70;4.13;;;;;;;33.97;30.32;101002.03;4981728;28;20062;-81
2022/06/30 09:34:51;;;;;;;6.30;3.80;;;;;;;33.02;31.85;101000.22;4975670;28;20100;-81
2022/06/30 09:37:22;;;;;;;4.32;3.30;;;;;;;33.02;31.68;101000.22;4969187;28;20031;-80
2022/06/30 09:39:48;;;;;;;6.95;3.50;;;;;;;33.96;30.31;100984.59;4965968;28;20497;-82
2022/06/30 09:42:14;;;;;;;6.20;3.90;;;;;;;34.63;29.92;100993.81;4976645;28;20039;-81
2022/06/30 09:44:39;;;;;;;7.50;4.07;;;;;;;35.09;29.20;100994.25;4965209;28;20031;-82
2022/06/30 09:47:08;;;;;;;6.95;3.60;;;;;;;35.57;27.70;100996.03;4963201;28;20085;-82
2022/06/30 09:49:42;;;;;;;6.30;4.13;;;;;;;35.95;27.42;100995.53;4960291;28;20023;-82
2022/06/30 09:52:14;;;;;;;9.73;4.82;;;;;;;36.47;27.75;101006.72;4962380;28;20073;-82
2022/06/30 09:54:52;;;;;;;7.72;4.60;;;;;;;36.36;27.58;100993.69;4957948;28;20035;-83
2022/06/30 09:57:17;;;;;;;6.93;4.07;;;;;;;35.74;26.87;101002.53;4976670;28;20206;-83
2022/06/30 09:59:43;;;;;;;7.63;3.97;;;;;;;35.11;27.34;101004.00;4982520;28;20014;-83
2022/06/30 10:02:10;;;;;;;9.18;3.25;;;;;;;34.92;28.52;101007.88;4966905;28;20039;-83
2022/06/30 10:04:55;;;;;;;5.15;3.10;;;;;;;34.60;30.44;101002.56;4968177;28;20596;-83
2022/06/30 10:07:21;;;;;;;4.40;3.42;;;;;;;33.56;29.07;101007.06;4954320;28;20027;-82
2022/06/30 10:09:48;;;;;;;5.97;3.25;;;;;;;33.41;29.96;100995.50;4974805;28;20484;-82
2022/06/30 10:12:14;;;;;;;4.63;3.20;;;;;;;33.97;29.75;101004.81;4963928;28;20165;-83
2022/06/30 10:14:40;;;;;;;5.57;3.00;;;;;;;34.35;29.81;101005.41;4965160;28;20113;-82
2022/06/30 10:17:08;;;;;;;6.43;3.05;;;;;;;33.96;30.75;101028.78;4972905;28;20042;-82
2022/06/30 10:19:34;;;;;;;7.45;3.10;;;;;;;34.20;30.39;101014.09;4970772;28;20053;-82
2022/06/30 10:22:00;;;;;;;7.38;3.40;;;;;;;34.77;28.44;101007.47;4967519;28;20026;-83
2022/06/30 10:24:25;;;;;;;6.78;2.97;;;;;;;35.23;27.36;101006.78;4976151;28;20035;-82
2022/06/30 10:29:37;;;;;;;5.82;2.60;;;;;;;37.30;25.48;100996.94;4974276;28;20038;-83
2022/06/30 10:32:20;;;;;;;5.47;3.08;;;;;;;37.98;25.22;100986.66;4984392;28;20030;-82
2022/06/30 10:34:55;;;;;;;7.53;3.17;;;;;;;35.52;26.10;100995.94;4985264;28;20034;-83
2022/06/30 10:37:26;;;;;;;5.07;2.60;;;;;;;33.66;28.62;100996.38;4979000;28;20427;-82
2022/06/30 10:40:02;;;;;;;5.72;2.92;;;;;;;34.88;28.87;101001.97;4991369;28;20117;-83
2022/06/30 10:42:45;;;;;;;4.75;2.10;;;;;;;36.69;27.23;100990.25;4970051;28;20046;-81
2022/06/30 10:45:26;;;;;;;5.30;2.70;;;;;;;37.03;24.55;100998.66;4966427;28;20121;-80
2022/06/30 10:48:07;;;;;;;6.70;2.67;;;;;;;37.27;24.56;101004.94;4968677;28;20105;-81
2022/06/30 10:50:36;;;;;;;5.23;3.17;;;;;;;37.10;24.16;100997.44;4963387;28;20034;-81
2022/06/30 10:53:04;;;;;;;5.43;3.03;;;;;;;36.96;24.90;100996.06;4978512;28;20133;-81
2022/06/30 10:55:47;;;;;;;4.85;2.60;;;;;;;37.58;25.32;100997.97;4980784;28;20405;-81
2022/06/30 10:58:12;;;;;;;7.47;2.20;;;;;;;38.38;23.94;100982.78;4968337;28;20031;-82
2022/06/30 11:00:56;;;;;;;4.82;2.17;;;;;;;38.66;24.33;100989.19;4969801;28;20034;-81
2022/06/30 11:03:50;;;;;;;4.63;2.25;;;;;;;38.07;24.75;101006.50;4985785;28;20391;-81
2022/06/30 11:06:16;;;;;;;3.15;1.90;;;;;;;36.56;25.09;100988.59;4977306;28;20046;-81
2022/06/30 11:08:52;;;;;;;4.72;2.40;;;;;;;35.50;25.63;100987.88;4966963;28;20031;-81
2022/06/30 11:11:24;;;;;;;3.80;2.55;;;;;;;34.23;28.01;100989.84;4979659;28;20380;-81
2022/06/30 11:14:01;;;;;;;8.98;5.82;;;;;;;34.24;28.94;100989.63;4975337;28;20480;-82
2022/06/30 11:16:27;;;;;;;5.32;2.80;;;;;;;35.84;27.06;100985.34;4960405;28;20437;-81
2022/06/30 11:18:52;;;;;;;6.22;2.20;;;;;;;37.53;24.50;100989.56;4963864;28;20023;-81
2022/06/30 11:21:18;;;;;;;5.22;2.40;;;;;;;37.94;23.53;100970.75;4966523;28;20037;-81
2022/06/30 11:23:48;;;;;;;5.15;2.22;;;;;;;36.67;24.35;100970.25;4956324;28;20127;-82
2022/06/30 11:29:03;;;;;;;5.32;2.22;;;;;;;33.92;28.29;100980.59;4980837;28;20041;-81
2022/06/30 11:31:35;;;;;;;4.18;2.10;;;;;;;32.96;30.36;100977.16;4990647;28;20022;-81
2022/06/30 11:34:20;;;;;;;6.07;2.58;;;;;;;32.92;30.03;100975.91;4977224;28;20058;-81
2022/06/30 11:36:45;;;;;;;4.47;2.17;;;;;;;34.96;27.79;100959.31;4967423;28;20037;-81